createdAt,value
2023-02-23T00:01:39.644Z,94538.28
2023-02-23T00:04:07.247Z,94537.00
2023-02-23T00:06:36.683Z,94542.19
2023-02-23T00:09:10.784Z,94541.94
2023-02-23T00:11:39.749Z,94531.94
2023-02-23T00:14:08.298Z,94533.56
2023-02-23T00:16:37.483Z,94531.94
2023-02-23T00:19:08.034Z,94540.28
2023-02-23T00:21:36.091Z,94534.44
2023-02-23T00:24:04.846Z,94535.25
2023-02-23T00:26:35.197Z,94537.72
2023-02-23T00:29:06.444Z,94537.25
2023-02-23T00:31:35.073Z,94531.59
2023-02-23T00:34:04.511Z,94538.88
2023-02-23T00:36:33.375Z,94535.13
2023-02-23T00:39:03.809Z,94534.31
2023-02-23T00:41:31.412Z,94528.91
2023-02-23T00:44:00.619Z,94528.91
2023-02-23T00:46:31.009Z,94535.13
2023-02-23T00:49:00.210Z,94534.88
2023-02-23T00:51:30.930Z,94531.94
2023-02-23T00:53:59.456Z,94532.19
2023-02-23T00:56:28.324Z,94533.59
2023-02-23T00:58:56.551Z,94535.25
2023-02-23T01:01:25.007Z,94538.75
2023-02-23T01:03:54.190Z,94535.00
2023-02-23T01:06:21.838Z,94534.78
2023-02-23T01:08:52.090Z,94527.47
2023-02-23T01:11:22.722Z,94531.25
2023-02-23T01:13:53.010Z,94529.13
2023-02-23T01:16:23.086Z,94525.34
2023-02-23T01:18:50.666Z,94521.59
2023-02-23T01:21:21.136Z,94521.59
2023-02-23T01:23:48.917Z,94522.06
2023-02-23T01:26:19.096Z,94533.97
2023-02-23T01:28:50.082Z,94530.88
2023-02-23T01:31:18.279Z,94539.84
2023-02-23T01:33:46.398Z,94538.75
2023-02-23T01:36:14.147Z,94536.66
2023-02-23T01:38:43.135Z,94535.59
2023-02-23T01:41:10.933Z,94538.75
2023-02-23T01:43:57.122Z,94531.13
2023-02-23T01:46:24.875Z,94528.44
2023-02-23T01:48:53.091Z,94526.78
2023-02-23T01:51:22.825Z,94528.44
2023-02-23T01:53:55.497Z,94522.53
2023-02-23T01:56:25.842Z,94517.72
2023-02-23T01:58:54.640Z,94518.31
2023-02-23T02:01:23.275Z,94517.84
2023-02-23T02:03:53.217Z,94518.66
2023-02-23T02:06:23.516Z,94509.47
2023-02-23T02:08:55.218Z,94507.59
2023-02-23T02:11:36.159Z,94507.81
2023-02-23T02:14:12.711Z,94509.47
2023-02-23T02:17:02.235Z,94508.63
2023-02-23T02:20:14.988Z,94508.63
2023-02-23T02:22:54.176Z,94512.88
2023-02-23T02:25:38.325Z,94511.56
2023-02-23T02:28:29.627Z,94506.91
2023-02-23T02:31:17.904Z,94503.56
2023-02-23T02:34:15.921Z,94504.41
2023-02-23T02:37:02.450Z,94504.41
2023-02-23T02:39:38.077Z,94502.75
2023-02-23T02:42:12.694Z,94500.06
2023-02-23T02:44:44.177Z,94499.00
2023-02-23T02:47:14.336Z,94493.59
2023-02-23T02:49:47.070Z,94496.31
2023-02-23T02:52:20.367Z,94498.41
2023-02-23T02:54:53.194Z,94498.28
2023-02-23T02:57:21.531Z,94500.06
2023-02-23T03:00:08.344Z,94505.00
2023-02-23T03:02:55.841Z,94502.75
2023-02-23T03:05:44.135Z,94498.75
2023-02-23T03:08:38.291Z,94493.09
2023-02-23T03:11:25.042Z,94492.06
2023-02-23T03:14:21.491Z,94491.81
2023-02-23T03:17:11.819Z,94504.75
2023-02-23T03:20:06.861Z,94497.22
2023-02-23T03:22:57.422Z,94496.88
2023-02-23T03:25:48.063Z,94500.63
2023-02-23T03:28:35.350Z,94492.41
2023-02-23T03:31:26.029Z,94491.94
2023-02-23T03:34:18.680Z,94494.63
2023-02-23T03:37:06.612Z,94493.81
2023-02-23T03:39:55.493Z,94498.63
2023-02-23T03:42:46.707Z,94502.97
2023-02-23T03:45:35.728Z,94503.22
2023-02-23T03:48:22.230Z,94502.63
2023-02-23T03:51:11.133Z,94498.72
2023-02-23T03:54:00.687Z,94499.19
2023-02-23T03:56:47.120Z,94499.69
2023-02-23T03:59:36.112Z,94504.25
2023-02-23T04:02:21.893Z,94500.97
2023-02-23T04:05:07.795Z,94497.31
2023-02-23T04:07:53.637Z,94501.53
2023-02-23T04:10:39.061Z,94502.81
2023-02-23T04:13:14.753Z,94498.69
2023-02-23T04:15:47.295Z,94509.72
2023-02-23T04:18:17.000Z,94509.50
2023-02-23T04:20:44.699Z,94509.97
2023-02-23T04:23:12.510Z,94509.84
2023-02-23T04:25:40.246Z,94510.28
2023-02-23T04:28:07.852Z,94508.53
2023-02-23T04:30:35.490Z,94511.47
2023-02-23T04:33:04.520Z,94508.53
2023-02-23T04:35:32.155Z,94511.00
2023-02-23T04:37:59.851Z,94502.06
2023-02-23T04:40:28.330Z,94503.13
2023-02-23T04:42:56.481Z,94505.59
2023-02-23T04:45:24.851Z,94510.53
2023-02-23T04:47:52.961Z,94506.78
2023-02-23T04:50:22.152Z,94511.94
2023-02-23T04:52:50.288Z,94510.91
2023-02-23T04:55:19.785Z,94508.22
2023-02-23T04:57:48.250Z,94512.53
2023-02-23T05:00:16.695Z,94512.09
2023-02-23T05:02:44.831Z,94513.75
2023-02-23T05:05:13.074Z,94517.84
2023-02-23T05:07:42.059Z,94513.28
2023-02-23T05:10:11.304Z,94516.81
2023-02-23T05:12:38.925Z,94511.16
2023-02-23T05:15:07.774Z,94507.38
2023-02-23T05:17:35.397Z,94512.34
2023-02-23T05:20:03.018Z,94505.88
2023-02-23T05:22:30.591Z,94501.06
2023-02-23T05:24:59.509Z,94502.72
2023-02-23T05:27:27.149Z,94507.66
2023-02-23T05:29:54.753Z,94506.81
2023-02-23T05:32:22.425Z,94501.66
2023-02-23T05:34:49.994Z,94506.00
2023-02-23T05:37:18.034Z,94507.91
2023-02-23T05:39:45.624Z,94511.41
2023-02-23T05:42:14.542Z,94510.38
2023-02-23T05:44:42.088Z,94515.53
2023-02-23T05:47:10.768Z,94520.94
2023-02-23T05:49:38.513Z,94513.66
2023-02-23T05:52:06.204Z,94513.09
2023-02-23T05:54:33.890Z,94513.91
2023-02-23T05:57:01.954Z,94514.72
2023-02-23T05:59:31.165Z,94517.19
2023-02-23T06:05:43.913Z,94527.53
2023-02-23T06:08:12.097Z,94523.78
2023-02-23T06:10:39.700Z,94520.81
2023-02-23T06:13:07.285Z,94524.16
2023-02-23T06:15:37.370Z,94527.44
2023-02-23T06:18:05.222Z,94532.63
2023-02-23T06:20:32.898Z,94526.97
2023-02-23T06:23:00.483Z,94530.25
2023-02-23T06:25:28.074Z,94531.94
2023-02-23T06:27:55.738Z,94534.63
2023-02-23T06:30:23.738Z,94547.31
2023-02-23T06:32:52.878Z,94545.69
2023-02-23T06:35:20.635Z,94545.91
2023-02-23T06:37:48.237Z,94544.84
2023-02-23T06:40:16.039Z,94546.94
2023-02-23T06:42:43.599Z,94552.38
2023-02-23T06:45:13.270Z,94555.88
2023-02-23T06:47:41.047Z,94560.84
2023-02-23T06:50:11.701Z,94558.34
2023-02-23T06:52:39.337Z,94560.25
2023-02-23T06:55:08.567Z,94559.22
2023-02-23T06:57:36.216Z,94561.44
2023-02-23T07:00:04.638Z,94560.72
2023-02-23T07:02:32.375Z,94564.63
2023-02-23T07:04:59.956Z,94565.22
2023-02-23T07:07:28.992Z,94559.59
2023-02-23T07:09:56.573Z,94565.00
2023-02-23T07:12:24.164Z,94568.06
2023-02-23T07:14:51.841Z,94574.91
2023-02-23T07:17:19.679Z,94567.13
2023-02-23T07:19:47.257Z,94566.91
2023-02-23T07:22:14.953Z,94570.53
2023-02-23T07:24:43.872Z,94572.56
2023-02-23T07:27:11.484Z,94577.03
2023-02-23T07:29:39.110Z,94571.97
2023-02-23T07:32:07.025Z,94572.91
2023-02-23T07:34:34.709Z,94572.22
2023-02-23T07:37:02.311Z,94573.38
2023-02-23T07:39:31.039Z,94572.44
2023-02-23T07:42:00.067Z,94568.19
2023-02-23T07:44:27.718Z,94577.28
2023-02-23T07:46:55.352Z,94574.91
2023-02-23T07:49:22.959Z,94571.25
2023-02-23T07:51:50.562Z,94578.41
2023-02-23T07:54:18.228Z,94578.53
2023-02-23T07:56:45.874Z,94575.97
2023-02-23T07:59:15.311Z,94577.34
2023-02-23T08:01:42.909Z,94583.69
2023-02-23T08:04:10.524Z,94582.97
2023-02-23T08:06:38.190Z,94573.31
2023-02-23T08:09:06.440Z,94577.19
2023-02-23T08:11:34.053Z,94582.13
2023-02-23T08:14:01.718Z,94578.47
2023-02-23T08:16:32.242Z,94581.53
2023-02-23T08:19:00.811Z,94588.84
2023-02-23T08:21:30.014Z,94577.41
2023-02-23T08:23:58.074Z,94582.00
2023-02-23T08:26:26.027Z,94578.72
2023-02-23T08:28:53.735Z,94584.72
2023-02-23T08:31:24.441Z,94580.94
2023-02-23T08:33:54.657Z,94580.34
2023-02-23T08:36:22.881Z,94579.66
2023-02-23T08:38:50.686Z,94580.28
2023-02-23T08:41:18.894Z,94586.44
2023-02-23T08:43:46.630Z,94585.16
2023-02-23T08:46:14.805Z,94582.91
2023-02-23T08:48:42.451Z,94583.03
2023-02-23T08:51:11.367Z,94581.38
2023-02-23T08:53:38.968Z,94582.69
2023-02-23T08:56:07.849Z,94591.50
2023-02-23T08:58:36.301Z,94586.22
2023-02-23T09:01:04.609Z,94590.09
2023-02-23T09:03:32.947Z,94590.09
2023-02-23T09:06:07.881Z,94589.13
2023-02-23T09:08:36.974Z,94577.59
2023-02-23T09:11:04.685Z,94584.44
2023-02-23T09:13:32.389Z,94579.13
2023-02-23T09:16:00.194Z,94581.59
2023-02-23T09:18:29.520Z,94587.63
2023-02-23T09:20:57.447Z,94588.22
2023-02-23T09:23:25.649Z,94582.66
2023-02-23T09:25:54.622Z,94590.44
2023-02-23T09:28:22.241Z,94588.63
2023-02-23T09:30:49.875Z,94591.34
2023-02-23T09:33:18.195Z,94588.75
2023-02-23T09:35:45.816Z,94587.81
2023-02-23T09:38:13.385Z,94588.38
2023-02-23T09:40:47.359Z,94586.84
2023-02-23T09:43:21.115Z,94592.38
2023-02-23T09:45:50.751Z,94593.06
2023-02-23T09:48:20.606Z,94596.94
2023-02-23T09:50:50.528Z,94596.56
2023-02-23T09:53:29.712Z,94602.66
2023-02-23T09:55:58.419Z,94601.81
2023-02-23T09:58:28.857Z,94601.47
2023-02-23T10:01:20.994Z,94600.31
2023-02-23T10:03:53.545Z,94607.69
2023-02-23T10:06:21.756Z,94610.09
2023-02-23T10:08:55.931Z,94608.09
2023-02-23T10:11:27.143Z,94601.22
2023-02-23T10:14:09.876Z,94601.63
2023-02-23T10:16:45.567Z,94602.88
2023-02-23T10:19:16.762Z,94607.28
2023-02-23T10:21:56.382Z,94600.94
2023-02-23T10:24:27.299Z,94602.75
2023-02-23T10:26:56.807Z,94602.34
2023-02-23T10:29:28.533Z,94607.91
2023-02-23T10:31:58.931Z,94603.19
2023-02-23T10:34:28.945Z,94601.63
2023-02-23T10:37:00.543Z,94599.84
2023-02-23T10:39:28.876Z,94587.53
2023-02-23T10:41:58.035Z,94592.28
2023-02-23T10:44:28.565Z,94592.91
2023-02-23T10:46:58.066Z,94590.81
2023-02-23T10:49:30.342Z,94593.53
2023-02-23T10:52:02.829Z,94598.28
2023-02-23T10:54:45.682Z,94589.16
2023-02-23T10:57:20.588Z,94594.44
2023-02-23T11:00:04.130Z,94580.31
2023-02-23T11:02:31.942Z,94590.78
2023-02-23T11:05:01.087Z,94593.66
2023-02-23T11:07:31.145Z,94586.88
2023-02-23T11:09:59.403Z,94582.09
2023-02-23T11:12:29.612Z,94589.22
2023-02-23T11:14:59.996Z,94577.38
2023-02-23T11:17:30.776Z,94583.25
2023-02-23T11:20:04.359Z,94576.50
2023-02-23T11:22:33.760Z,94577.03
2023-02-23T11:25:06.767Z,94573.78
2023-02-23T11:27:34.903Z,94573.28
2023-02-23T11:30:07.240Z,94577.47
2023-02-23T11:32:43.171Z,94564.56
2023-02-23T11:35:28.488Z,94565.13
2023-02-23T11:37:56.514Z,94565.19
2023-02-23T11:40:27.169Z,94561.47
2023-02-23T11:42:56.868Z,94565.59
2023-02-23T11:45:27.938Z,94551.78
2023-02-23T11:47:58.677Z,94553.91
2023-02-23T11:50:28.795Z,94554.84
2023-02-23T11:53:03.328Z,94550.72
2023-02-23T11:55:32.931Z,94550.38
2023-02-23T11:58:11.882Z,94549.31
2023-02-23T12:00:41.356Z,94535.97
2023-02-23T12:03:13.871Z,94538.28
2023-02-23T12:05:41.532Z,94541.03
2023-02-23T12:08:14.328Z,94533.50
2023-02-23T12:10:43.658Z,94535.59
2023-02-23T12:13:25.919Z,94527.41
2023-02-23T12:15:58.852Z,94529.53
2023-02-23T12:18:40.253Z,94531.13
2023-02-23T12:21:16.942Z,94530.41
2023-02-23T12:23:49.946Z,94537.88
2023-02-23T12:26:22.716Z,94528.38
2023-02-23T12:28:54.020Z,94528.03
2023-02-23T12:31:28.313Z,94520.53
2023-02-23T12:33:59.013Z,94531.56
2023-02-23T12:36:31.390Z,94516.88
2023-02-23T12:39:02.119Z,94516.03
2023-02-23T12:41:36.560Z,94518.81
2023-02-23T12:44:13.356Z,94516.94
2023-02-23T12:46:47.553Z,94519.13
2023-02-23T12:49:20.402Z,94512.84
2023-02-23T12:51:52.648Z,94517.22
2023-02-23T12:54:20.217Z,94518.31
2023-02-23T12:57:08.985Z,94507.94
2023-02-23T13:00:00.662Z,94524.34
2023-02-23T13:02:31.276Z,94516.16
2023-02-23T13:05:06.866Z,94514.25
2023-02-23T13:07:42.722Z,94509.63
2023-02-23T13:10:19.976Z,94511.84
2023-02-23T13:12:55.912Z,94510.22
2023-02-23T13:15:28.086Z,94506.66
2023-02-23T13:17:59.124Z,94506.13
2023-02-23T13:20:33.705Z,94508.88
2023-02-23T13:23:10.835Z,94503.41
2023-02-23T13:25:44.524Z,94503.97
2023-02-23T13:28:19.168Z,94506.44
2023-02-23T13:30:47.706Z,94505.91
2023-02-23T13:33:34.958Z,94508.88
2023-02-23T13:36:06.705Z,94495.22
2023-02-23T13:38:42.136Z,94492.78
2023-02-23T13:41:19.235Z,94499.59
2023-02-23T13:43:52.205Z,94500.13
2023-02-23T13:46:25.760Z,94487.84
2023-02-23T13:49:01.758Z,94484.84
2023-02-23T13:51:36.236Z,94486.47
2023-02-23T13:54:07.762Z,94479.94
2023-02-23T13:56:42.315Z,94489.47
2023-02-23T13:59:22.649Z,94479.94
2023-02-23T14:01:53.209Z,94489.75
2023-02-23T14:04:25.436Z,94479.94
2023-02-23T14:06:56.770Z,94483.19
2023-02-23T14:09:29.206Z,94484.53
2023-02-23T14:12:03.354Z,94481.53
2023-02-23T14:14:43.264Z,94479.94
2023-02-23T14:17:50.530Z,94484.28
2023-02-23T14:20:45.590Z,94482.66
2023-02-23T14:23:50.182Z,94481.53
2023-02-23T14:26:34.160Z,94482.66
2023-02-23T14:29:22.094Z,94477.47
2023-02-23T14:32:01.471Z,94475.81
2023-02-23T14:34:48.214Z,94470.06
2023-02-23T14:37:21.947Z,94477.19
2023-02-23T14:39:51.621Z,94478.28
2023-02-23T14:42:23.203Z,94477.19
2023-02-23T14:44:52.591Z,94474.47
2023-02-23T14:47:22.300Z,94475.00
2023-02-23T14:49:52.021Z,94471.72
2023-02-23T14:52:24.546Z,94475.81
2023-02-23T14:54:52.962Z,94480.47
2023-02-23T14:57:22.658Z,94473.09
2023-02-23T14:59:55.569Z,94468.47
2023-02-23T15:02:25.118Z,94473.06
2023-02-23T15:04:52.841Z,94469.00
2023-02-23T15:07:28.000Z,94473.88
2023-02-23T15:09:57.300Z,94470.88
2023-02-23T15:12:28.450Z,94461.88
2023-02-23T15:14:58.606Z,94473.88
2023-02-23T15:17:27.855Z,94470.34
2023-02-23T15:20:09.586Z,94470.06
2023-02-23T15:22:44.309Z,94468.41
2023-02-23T15:25:16.267Z,94461.78
2023-02-23T15:27:45.714Z,94463.94
2023-02-23T15:30:27.662Z,94466.09
2023-02-23T15:33:03.446Z,94462.75
2023-02-23T15:35:31.697Z,94466.50
2023-02-23T15:38:13.719Z,94460.53
2023-02-23T15:40:42.157Z,94465.38
2023-02-23T15:43:10.293Z,94465.91
2023-02-23T15:45:42.681Z,94467.59
2023-02-23T15:48:17.198Z,94461.06
2023-02-23T15:50:50.173Z,94468.44
2023-02-23T15:53:25.522Z,94463.00
2023-02-23T15:56:00.717Z,94458.38
2023-02-23T15:58:30.898Z,94464.94
2023-02-23T16:00:59.937Z,94470.13
2023-02-23T16:03:31.657Z,94460.00
2023-02-23T16:06:05.374Z,94457.50
2023-02-23T16:08:36.874Z,94457.78
2023-02-23T16:11:11.937Z,94459.97
2023-02-23T16:13:43.926Z,94461.00
2023-02-23T16:16:19.046Z,94459.56
2023-02-23T16:18:49.102Z,94458.44
2023-02-23T16:21:19.000Z,94456.53
2023-02-23T16:23:49.314Z,94455.47
2023-02-23T16:26:24.231Z,94459.50
2023-02-23T16:28:57.548Z,94456.97
2023-02-23T16:31:28.175Z,94449.06
2023-02-23T16:33:59.836Z,94450.94
2023-02-23T16:36:37.848Z,94462.25
2023-02-23T16:39:11.386Z,94457.88
2023-02-23T16:41:39.188Z,94461.03
2023-02-23T16:44:08.589Z,94460.13
2023-02-23T16:46:57.062Z,94456.44
2023-02-23T16:49:24.644Z,94457.66
2023-02-23T16:51:52.582Z,94451.84
2023-02-23T16:54:21.526Z,94458.22
2023-02-23T16:56:49.429Z,94459.00
2023-02-23T16:59:18.820Z,94464.94
2023-02-23T17:01:47.204Z,94457.84
2023-02-23T17:04:16.275Z,94465.03
2023-02-23T17:06:44.450Z,94463.25
2023-02-23T17:09:13.020Z,94458.84
2023-02-23T17:11:42.312Z,94466.63
2023-02-23T17:14:11.825Z,94468.78
2023-02-23T17:16:39.485Z,94469.91
2023-02-23T17:19:07.273Z,94472.00
2023-02-23T17:21:34.858Z,94467.88
2023-02-23T17:24:03.738Z,94477.72
2023-02-23T17:26:31.398Z,94478.41
2023-02-23T17:29:00.734Z,94480.06
2023-02-23T17:31:28.880Z,94487.91
2023-02-23T17:33:57.980Z,94490.28
2023-02-23T17:36:27.459Z,94491.94
2023-02-23T17:38:58.623Z,94490.25
2023-02-23T17:41:27.090Z,94491.41
2023-02-23T17:43:54.885Z,94491.59
2023-02-23T17:46:24.852Z,94479.00
2023-02-23T17:48:55.996Z,94495.22
2023-02-23T17:51:24.020Z,94492.19
2023-02-23T17:53:51.697Z,94488.38
2023-02-23T17:56:20.205Z,94481.72
2023-02-23T17:58:48.436Z,94490.44
2023-02-23T18:01:16.276Z,94491.63
2023-02-23T18:03:45.315Z,94488.66
2023-02-23T18:06:14.115Z,94488.91
2023-02-23T18:08:43.018Z,94487.34
2023-02-23T18:11:11.073Z,94478.28
2023-02-23T18:13:39.147Z,94479.47
2023-02-23T18:16:09.343Z,94482.09
2023-02-23T18:18:37.304Z,94492.09
2023-02-23T18:21:12.328Z,94487.94
2023-02-23T18:23:39.994Z,94491.94
2023-02-23T18:26:09.077Z,94488.28
2023-02-23T18:28:38.654Z,94488.44
2023-02-23T18:31:06.625Z,94495.72
2023-02-23T18:33:35.871Z,94487.81
2023-02-23T18:36:04.131Z,94483.25
2023-02-23T18:38:33.133Z,94488.25
2023-02-23T18:41:00.738Z,94491.28
2023-02-23T18:43:28.346Z,94482.66
2023-02-23T18:45:56.089Z,94485.13
2023-02-23T18:48:23.705Z,94485.78
2023-02-23T18:50:56.575Z,94486.03
2023-02-23T18:53:24.185Z,94489.44
2023-02-23T18:55:53.134Z,94490.41
2023-02-23T18:58:20.801Z,94489.84
2023-02-23T19:00:48.422Z,94485.28
2023-02-23T19:03:16.122Z,94489.50
2023-02-23T19:05:52.991Z,94486.69
2023-02-23T19:08:20.875Z,94493.75
2023-02-23T19:10:48.631Z,94495.78
2023-02-23T19:13:21.943Z,94494.47
2023-02-23T19:15:50.236Z,94496.59
2023-02-23T19:18:17.862Z,94492.50
2023-02-23T19:20:45.487Z,94489.31
2023-02-23T19:23:13.444Z,94487.69
2023-02-23T19:25:41.181Z,94489.31
2023-02-23T19:28:09.794Z,94492.38
2023-02-23T19:30:39.803Z,94488.38
2023-02-23T19:33:08.136Z,94485.22
2023-02-23T19:35:35.848Z,94493.31
2023-02-23T19:38:03.842Z,94490.03
2023-02-23T19:40:31.499Z,94489.34
2023-02-23T19:42:59.110Z,94497.34
2023-02-23T19:45:26.817Z,94494.41
2023-02-23T19:47:56.172Z,94498.50
2023-02-23T19:50:23.786Z,94494.75
2023-02-23T19:52:51.415Z,94496.19
2023-02-23T19:55:20.464Z,94492.97
2023-02-23T19:57:48.122Z,94503.81
2023-02-23T20:00:16.445Z,94501.59
2023-02-23T20:02:44.134Z,94493.47
2023-02-23T20:05:14.577Z,94498.16
2023-02-23T20:07:42.589Z,94492.28
2023-02-23T20:10:16.073Z,94492.41
2023-02-23T20:12:43.886Z,94497.00
2023-02-23T20:15:14.694Z,94492.97
2023-02-23T20:17:42.452Z,94490.88
2023-02-23T20:20:12.149Z,94491.34
2023-02-23T20:22:44.676Z,94493.22
2023-02-23T20:25:15.970Z,94487.00
2023-02-23T20:27:44.432Z,94489.94
2023-02-23T20:30:13.545Z,94484.97
2023-02-23T20:32:41.535Z,94482.50
2023-02-23T20:35:11.321Z,94486.53
2023-02-23T20:37:38.956Z,94485.72
2023-02-23T20:40:15.766Z,94485.72
2023-02-23T20:42:44.501Z,94487.56
2023-02-23T20:45:14.216Z,94475.69
2023-02-23T20:47:42.392Z,94480.75
2023-02-23T20:50:12.763Z,94484.75
2023-02-23T20:52:40.549Z,94485.44
2023-02-23T20:55:10.870Z,94482.16
2023-02-23T20:57:38.546Z,94481.81
2023-02-23T21:00:10.600Z,94473.00
2023-02-23T21:02:38.953Z,94481.09
2023-02-23T21:05:10.208Z,94483.25
2023-02-23T21:07:38.143Z,94473.72
2023-02-23T21:10:07.733Z,94480.97
2023-02-23T21:12:36.781Z,94481.81
2023-02-23T21:15:05.788Z,94472.06
2023-02-23T21:17:33.423Z,94472.28
2023-02-23T21:20:02.275Z,94470.03
2023-02-23T21:22:29.862Z,94471.94
2023-02-23T21:25:00.388Z,94466.38
2023-02-23T21:27:28.062Z,94468.94
2023-02-23T21:29:57.066Z,94459.25
2023-02-23T21:32:27.069Z,94466.41
2023-02-23T21:34:54.749Z,94464.63
2023-02-23T21:37:22.427Z,94462.84
2023-02-23T21:39:50.135Z,94465.47
2023-02-23T21:42:22.981Z,94467.81
2023-02-23T21:44:51.503Z,94458.44
2023-02-23T21:47:20.439Z,94470.06
2023-02-23T21:49:49.354Z,94465.13
2023-02-23T21:52:17.318Z,94466.19
2023-02-23T21:54:49.951Z,94460.66
2023-02-23T21:57:17.950Z,94460.50
2023-02-23T21:59:45.585Z,94464.31
2023-02-23T22:02:13.791Z,94456.66
2023-02-23T22:04:42.771Z,94456.44
2023-02-23T22:07:10.366Z,94451.50
2023-02-23T22:09:37.965Z,94449.56
2023-02-23T22:12:07.626Z,94446.19
2023-02-23T22:14:35.614Z,94460.19
2023-02-23T22:17:06.311Z,94455.56
2023-02-23T22:19:34.223Z,94456.81
2023-02-23T22:22:03.234Z,94446.25
2023-02-23T22:24:31.602Z,94441.75
2023-02-23T22:27:00.876Z,94443.69
2023-02-23T22:29:28.599Z,94439.81
2023-02-23T22:31:56.314Z,94437.69
2023-02-23T22:34:24.212Z,94443.53
2023-02-23T22:36:51.942Z,94429.84
2023-02-23T22:39:20.951Z,94435.59
2023-02-23T22:41:49.108Z,94432.69
2023-02-23T22:44:18.649Z,94433.28
2023-02-23T22:46:47.955Z,94429.31
2023-02-23T22:49:16.484Z,94434.28
2023-02-23T22:51:44.793Z,94424.53
2023-02-23T22:54:13.254Z,94428.03
2023-02-23T22:56:42.930Z,94421.31
2023-02-23T22:59:11.182Z,94422.63
2023-02-23T23:01:39.944Z,94419.09
2023-02-23T23:04:10.347Z,94427.22
2023-02-23T23:06:39.962Z,94421.63
2023-02-23T23:09:08.724Z,94424.75
2023-02-23T23:11:37.309Z,94423.38
2023-02-23T23:14:10.117Z,94424.00
2023-02-23T23:16:40.620Z,94418.13
2023-02-23T23:19:12.130Z,94410.31
2023-02-23T23:21:41.511Z,94410.53
2023-02-23T23:24:10.314Z,94414.84
2023-02-23T23:26:39.762Z,94404.66
2023-02-23T23:29:11.049Z,94406.53
2023-02-23T23:31:39.555Z,94403.03
2023-02-23T23:34:09.309Z,94398.91
2023-02-23T23:36:42.795Z,94403.03
2023-02-23T23:39:12.905Z,94397.06
2023-02-23T23:41:42.974Z,94395.59
2023-02-23T23:44:13.118Z,94394.41
2023-02-23T23:46:43.322Z,94396.75
2023-02-23T23:49:12.975Z,94395.34
2023-02-23T23:51:44.787Z,94392.06
2023-02-23T23:54:14.458Z,94393.91
2023-02-23T23:56:43.538Z,94387.31
2023-02-23T23:59:16.323Z,94384.91
